createdAt,value
2023-01-21T00:01:22.444Z,22.00
2023-01-21T00:03:54.332Z,23.13
2023-01-21T00:06:22.611Z,23.48
2023-01-21T00:08:50.998Z,21.55
2023-01-21T00:11:19.191Z,19.17
2023-01-21T00:13:47.891Z,17.30
2023-01-21T00:16:18.493Z,19.45
2023-01-21T00:18:47.783Z,17.70
2023-01-21T00:21:17.461Z,18.48
2023-01-21T00:23:46.915Z,18.98
2023-01-21T00:26:15.171Z,18.10
2023-01-21T00:28:44.208Z,18.70
2023-01-21T00:31:13.077Z,18.65
2023-01-21T00:33:41.419Z,19.27
2023-01-21T00:36:12.641Z,18.70
2023-01-21T00:38:45.897Z,19.05
2023-01-21T00:41:14.920Z,18.25
2023-01-21T00:43:43.695Z,17.92
2023-01-21T00:46:14.356Z,17.83
2023-01-21T00:48:42.678Z,31.52
2023-01-21T00:51:11.413Z,18.30
2023-01-21T00:53:43.761Z,17.95
2023-01-21T00:56:14.369Z,18.60
2023-01-21T00:58:44.379Z,23.92
2023-01-21T01:01:15.556Z,18.60
2023-01-21T01:03:44.501Z,19.83
2023-01-21T01:06:14.406Z,20.13
2023-01-21T01:08:44.797Z,21.95
2023-01-21T01:11:14.457Z,19.98
2023-01-21T01:13:43.280Z,21.20
2023-01-21T01:16:13.822Z,20.35
2023-01-21T01:18:42.079Z,21.38
2023-01-21T01:21:13.121Z,20.27
2023-01-21T01:23:43.023Z,18.98
2023-01-21T01:26:13.275Z,20.20
2023-01-21T01:28:41.493Z,20.10
2023-01-21T01:31:12.055Z,19.73
2023-01-21T01:33:40.429Z,21.02
2023-01-21T01:36:11.681Z,21.33
2023-01-21T01:38:39.979Z,21.85
2023-01-21T01:41:12.164Z,21.67
2023-01-21T01:43:59.469Z,20.70
2023-01-21T01:46:29.201Z,24.20
2023-01-21T01:49:04.578Z,20.80
2023-01-21T01:51:45.737Z,20.67
2023-01-21T01:54:19.289Z,19.70
2023-01-21T01:56:52.632Z,19.33
2023-01-21T01:59:21.162Z,19.38
2023-01-21T05:03:38.621Z,13.02
2023-01-21T05:06:07.040Z,14.02
2023-01-21T05:08:35.591Z,14.77
2023-01-21T05:11:03.742Z,13.30
2023-01-21T05:13:31.966Z,13.93
2023-01-21T05:16:05.226Z,14.48
2023-01-21T05:18:33.415Z,13.90
2023-01-21T05:21:03.073Z,13.73
2023-01-21T05:23:31.306Z,14.30
2023-01-21T05:25:59.468Z,14.25
2023-01-21T05:28:27.658Z,13.32
2023-01-21T05:30:56.357Z,13.85
2023-01-21T05:33:31.545Z,13.45
2023-01-21T05:38:29.332Z,12.27
2023-01-21T05:40:58.897Z,12.43
2023-01-21T05:43:27.080Z,12.90
2023-01-21T05:45:55.979Z,14.10
2023-01-21T05:48:24.555Z,13.48
2023-01-21T05:50:52.870Z,13.90
2023-01-21T05:53:21.049Z,12.98
2023-01-21T05:55:54.243Z,13.68
2023-01-21T05:58:23.092Z,16.50
2023-01-21T06:00:51.490Z,13.38
2023-01-21T06:03:19.925Z,14.05
2023-01-21T06:05:50.753Z,14.82
2023-01-21T06:08:19.210Z,13.35
2023-01-21T06:10:47.572Z,14.95
2023-01-21T06:13:17.746Z,14.73
2023-01-21T06:15:46.046Z,14.95
2023-01-21T06:18:14.543Z,14.60
2023-01-21T06:20:42.752Z,15.77
2023-01-21T06:23:10.920Z,16.83
2023-01-21T06:25:39.011Z,16.55
2023-01-21T06:28:07.411Z,17.65
2023-01-21T06:30:37.045Z,17.83
2023-01-21T06:33:05.529Z,19.73
2023-01-21T06:35:33.688Z,19.10
2023-01-21T06:38:01.856Z,19.17
2023-01-21T06:40:30.108Z,19.40
2023-01-21T06:42:58.367Z,20.83
2023-01-21T06:45:26.547Z,20.10
2023-01-21T06:47:56.144Z,20.92
2023-01-21T06:50:24.296Z,20.35
2023-01-21T06:52:52.528Z,20.58
2023-01-21T06:55:20.696Z,20.85
2023-01-21T06:57:48.911Z,20.98
2023-01-21T07:00:18.549Z,21.88
2023-01-21T07:02:47.036Z,24.27
2023-01-21T07:05:17.178Z,23.00
2023-01-21T07:07:45.624Z,28.00
2023-01-21T07:10:14.155Z,23.17
2023-01-21T07:12:42.424Z,24.30
2023-01-21T07:15:11.283Z,24.33
2023-01-21T07:17:39.495Z,25.58
2023-01-21T07:20:09.170Z,25.05
2023-01-21T07:22:38.918Z,25.77
2023-01-21T07:25:08.371Z,24.50
2023-01-21T07:27:39.067Z,27.03
2023-01-21T07:30:08.778Z,25.20
2023-01-21T07:32:36.888Z,26.83
2023-01-21T07:35:05.625Z,24.90
2023-01-21T07:37:38.202Z,23.93
2023-01-21T07:40:07.658Z,23.67
2023-01-21T07:42:36.068Z,25.50
2023-01-21T07:45:05.419Z,26.05
2023-01-21T07:47:33.676Z,26.80
2023-01-21T07:50:05.137Z,24.25
2023-01-21T07:52:33.643Z,23.73
2023-01-21T07:55:03.240Z,26.25
2023-01-21T07:57:31.580Z,26.27
2023-01-21T07:59:59.868Z,27.02
2023-01-21T08:02:28.245Z,27.08
2023-01-21T08:04:56.506Z,26.50
2023-01-21T08:07:24.965Z,27.65
2023-01-21T08:09:53.202Z,26.90
2023-01-21T08:12:27.245Z,23.92
2023-01-21T08:14:55.740Z,23.48
2023-01-21T08:17:23.903Z,24.92
2023-01-21T08:19:52.080Z,24.45
2023-01-21T08:22:23.301Z,24.13
2023-01-21T08:24:51.528Z,22.88
2023-01-21T08:27:19.691Z,24.05
2023-01-21T08:29:49.235Z,23.45
2023-01-21T08:32:17.759Z,24.17
2023-01-21T08:34:45.932Z,24.33
2023-01-21T08:37:14.289Z,23.83
2023-01-21T08:39:42.489Z,21.88
2023-01-21T08:42:10.732Z,24.88
2023-01-21T08:44:38.909Z,23.10
2023-01-21T08:47:08.560Z,23.52
2023-01-21T08:49:36.679Z,23.98
2023-01-21T08:52:05.857Z,22.60
2023-01-21T08:54:34.033Z,23.25
2023-01-21T08:57:02.119Z,21.63
2023-01-21T08:59:32.347Z,22.85
2023-01-21T09:02:00.488Z,23.10
2023-01-21T09:04:32.726Z,22.73
2023-01-21T09:07:01.038Z,21.08
2023-01-21T09:09:29.263Z,21.70
2023-01-21T09:11:57.427Z,22.00
2023-01-21T09:14:25.590Z,21.85
2023-01-21T09:16:55.761Z,20.23
2023-01-21T09:19:25.025Z,22.70
2023-01-21T09:21:55.598Z,22.75
2023-01-21T09:24:25.009Z,20.48
2023-01-21T09:26:53.412Z,22.10
2023-01-21T09:29:21.970Z,20.55
2023-01-21T09:31:50.197Z,21.15
2023-01-21T09:34:18.436Z,19.20
2023-01-21T09:36:46.989Z,20.92
2023-01-21T09:39:18.762Z,21.92
2023-01-21T09:41:50.923Z,19.95
2023-01-21T09:44:25.680Z,21.30
2023-01-21T09:46:59.478Z,20.30
2023-01-21T09:49:32.046Z,17.92
2023-01-21T09:52:06.827Z,20.73
2023-01-21T09:54:39.602Z,21.10
2023-01-21T09:57:50.440Z,21.92
2023-01-21T10:00:31.116Z,21.13
2023-01-21T10:03:04.469Z,20.65
2023-01-21T10:06:00.150Z,21.55
2023-01-21T10:08:38.471Z,21.00
2023-01-21T10:11:23.968Z,21.45
2023-01-21T10:14:06.149Z,20.63
2023-01-21T10:16:44.243Z,21.03
2023-01-21T10:19:23.010Z,21.45
2023-01-21T10:21:56.968Z,23.05
2023-01-21T10:24:30.165Z,19.98
2023-01-21T10:27:01.471Z,20.95
2023-01-21T10:29:30.265Z,23.10
2023-01-21T10:32:02.509Z,22.33
2023-01-21T10:34:32.341Z,20.30
2023-01-21T10:37:12.492Z,20.02
2023-01-21T10:39:48.926Z,44.80
2023-01-21T10:42:51.435Z,26.60
2023-01-21T10:45:32.521Z,20.63
2023-01-21T10:48:07.003Z,20.48
2023-01-21T10:50:46.376Z,19.63
2023-01-21T10:53:23.086Z,20.67
2023-01-21T10:56:02.336Z,24.42
2023-01-21T10:58:36.869Z,20.48
2023-01-21T11:01:08.931Z,21.95
2023-01-21T11:03:44.751Z,21.30
2023-01-21T11:06:17.678Z,20.73
2023-01-21T11:08:49.465Z,19.73
2023-01-21T11:11:27.870Z,19.17
2023-01-21T11:13:59.467Z,21.20
2023-01-21T11:16:44.013Z,18.27
2023-01-21T11:19:16.839Z,22.55
2023-01-21T11:22:01.023Z,19.88
2023-01-21T11:24:30.785Z,18.48
2023-01-21T11:27:02.585Z,19.07
2023-01-21T11:29:42.559Z,19.75
2023-01-21T11:32:21.474Z,18.70
2023-01-21T11:34:51.799Z,19.05
2023-01-21T11:37:25.962Z,19.58
2023-01-21T11:40:00.760Z,17.77
2023-01-21T11:42:29.132Z,18.65
2023-01-21T11:45:02.011Z,17.85
2023-01-21T11:47:39.158Z,16.73
2023-01-21T11:50:17.214Z,16.77
2023-01-21T11:52:45.823Z,16.48
2023-01-21T11:55:25.262Z,18.17
2023-01-21T11:57:56.646Z,19.70
2023-01-21T12:00:28.465Z,16.25
2023-01-21T12:03:00.499Z,16.63
2023-01-21T12:05:35.602Z,15.75
2023-01-21T12:08:06.076Z,14.32
2023-01-21T12:10:37.567Z,13.73
2023-01-21T12:13:18.651Z,20.70
2023-01-21T12:16:19.495Z,15.60
2023-01-21T12:19:16.735Z,12.40
2023-01-21T12:22:12.587Z,12.38
2023-01-21T12:24:57.197Z,12.52
2023-01-21T12:27:33.876Z,11.68
2023-01-21T12:30:19.866Z,12.48
2023-01-21T12:32:56.755Z,11.25
2023-01-21T12:35:34.584Z,10.25
2023-01-21T12:38:08.187Z,9.70
2023-01-21T12:40:42.064Z,10.45
2023-01-21T12:43:17.808Z,8.77
2023-01-21T12:45:53.951Z,9.88
2023-01-21T12:48:31.155Z,9.50
2023-01-21T12:51:03.675Z,9.50
2023-01-21T12:53:38.598Z,11.25
2023-01-21T12:56:15.451Z,7.45
2023-01-21T12:58:50.231Z,8.32
2023-01-21T13:01:32.993Z,8.18
2023-01-21T13:04:13.190Z,9.32
2023-01-21T13:06:54.106Z,7.57
2023-01-21T13:09:32.229Z,7.78
2023-01-21T13:12:06.448Z,7.40
2023-01-21T13:14:39.900Z,7.57
2023-01-21T13:17:15.819Z,7.40
2023-01-21T13:19:45.416Z,6.32
2023-01-21T13:22:28.038Z,8.00
2023-01-21T13:25:09.587Z,8.75
2023-01-21T13:27:47.529Z,6.50
2023-01-21T13:30:24.761Z,6.85
2023-01-21T13:33:00.862Z,6.65
2023-01-21T13:35:38.773Z,7.07
2023-01-21T13:38:18.191Z,6.32
2023-01-21T13:40:54.668Z,7.70
2023-01-21T13:43:40.860Z,7.97
2023-01-21T13:46:24.344Z,6.70
2023-01-21T13:49:08.962Z,5.90
2023-01-21T13:51:57.074Z,7.75
2023-01-21T13:54:38.594Z,7.00
2023-01-21T13:57:36.382Z,6.50
2023-01-21T14:00:10.402Z,6.53
2023-01-21T14:02:47.953Z,6.78
2023-01-21T14:05:20.298Z,6.35
2023-01-21T14:07:53.731Z,10.93
2023-01-21T14:10:29.264Z,6.25
2023-01-21T14:13:26.106Z,7.15
2023-01-21T14:16:07.530Z,5.88
2023-01-21T14:18:55.621Z,5.82
2023-01-21T14:21:40.769Z,5.72
2023-01-21T14:24:24.326Z,5.28
2023-01-21T14:27:14.847Z,6.35
2023-01-21T14:29:46.976Z,5.00
2023-01-21T14:32:21.976Z,6.23
2023-01-21T14:35:03.075Z,6.05
2023-01-21T14:37:38.448Z,10.05
2023-01-21T14:40:18.174Z,6.05
2023-01-21T14:42:49.161Z,9.40
2023-01-21T14:45:21.982Z,13.07
2023-01-21T14:50:46.113Z,7.63
2023-01-21T14:53:21.614Z,8.52
2023-01-21T14:56:16.828Z,19.85
2023-01-21T14:58:50.174Z,3.95
2023-01-21T15:01:41.213Z,5.22
2023-01-21T15:04:25.821Z,3.45
2023-01-21T15:06:59.441Z,17.80
2023-01-21T15:09:31.304Z,4.90
2023-01-21T15:12:03.880Z,5.57
2023-01-21T15:14:35.720Z,3.35
2023-01-21T15:17:04.346Z,4.67
2023-01-21T15:19:35.928Z,5.28
2023-01-21T15:22:29.167Z,3.88
2023-01-21T15:28:36.846Z,3.28
2023-01-21T15:31:09.323Z,4.20
2023-01-21T15:33:57.096Z,4.25
2023-01-21T15:36:29.252Z,4.93
2023-01-21T15:39:02.398Z,6.05
2023-01-21T15:41:43.301Z,4.63
2023-01-21T15:44:42.313Z,5.53
2023-01-21T15:47:29.695Z,5.65
2023-01-21T15:50:04.322Z,5.88
2023-01-21T15:52:44.974Z,6.40
2023-01-21T15:55:28.253Z,15.85
2023-01-21T15:58:04.166Z,6.93
2023-01-21T16:00:40.396Z,7.85
2023-01-21T16:03:23.563Z,8.13
2023-01-21T16:06:00.522Z,8.43
2023-01-21T16:08:54.779Z,9.63
2023-01-21T16:11:50.701Z,9.85
2023-01-21T16:14:31.765Z,7.38
2023-01-21T16:17:07.138Z,8.90
2023-01-21T16:19:43.145Z,7.43
2023-01-21T16:22:18.882Z,7.95
2023-01-21T16:27:23.600Z,7.97
2023-01-21T16:29:57.069Z,9.65
2023-01-21T16:32:26.916Z,7.88
2023-01-21T16:34:56.545Z,8.93
2023-01-21T16:37:28.129Z,9.85
2023-01-21T16:39:58.369Z,11.15
2023-01-21T16:42:36.163Z,10.65
2023-01-21T16:45:10.052Z,11.38
2023-01-21T16:47:42.539Z,9.63
2023-01-21T16:50:20.247Z,11.38
2023-01-21T16:52:48.818Z,10.75
2023-01-21T16:55:20.857Z,15.60
2023-01-21T16:57:51.269Z,9.75
2023-01-21T17:00:26.072Z,12.85
2023-01-21T17:02:54.935Z,9.00
2023-01-21T17:05:25.447Z,11.35
2023-01-21T17:07:56.925Z,9.23
2023-01-21T17:10:30.308Z,8.35
2023-01-21T17:13:05.931Z,10.10
2023-01-21T17:15:38.269Z,11.88
2023-01-21T17:18:09.178Z,10.68
2023-01-21T17:20:43.634Z,11.82
2023-01-21T17:23:18.661Z,14.10
2023-01-21T17:25:54.828Z,12.77
2023-01-21T17:28:31.354Z,9.65
2023-01-21T17:31:23.274Z,10.48
2023-01-21T17:34:03.502Z,12.85
2023-01-21T17:36:35.026Z,13.77
2023-01-21T17:39:07.380Z,14.45
2023-01-21T17:41:37.843Z,15.40
2023-01-21T17:44:16.684Z,13.38
2023-01-21T17:46:46.616Z,12.10
2023-01-21T17:49:19.190Z,14.45
2023-01-21T17:51:49.503Z,11.35
2023-01-21T17:54:21.943Z,11.85
2023-01-21T17:56:52.474Z,11.35
2023-01-21T17:59:37.899Z,9.40
2023-01-21T18:02:13.384Z,10.48
2023-01-21T18:04:42.289Z,14.68
2023-01-21T18:07:22.362Z,11.25
2023-01-21T18:09:51.552Z,14.52
2023-01-21T18:12:21.074Z,11.32
2023-01-21T18:14:49.597Z,11.73
2023-01-21T18:17:19.695Z,10.85
2023-01-21T18:19:47.983Z,11.35
2023-01-21T18:22:23.003Z,14.75
2023-01-21T18:24:51.253Z,13.57
2023-01-21T18:27:20.642Z,14.25
2023-01-21T18:29:49.133Z,12.35
2023-01-21T18:32:18.890Z,11.73
2023-01-21T18:34:47.254Z,11.75
2023-01-21T18:37:18.867Z,13.48
2023-01-21T18:39:49.652Z,13.73
2023-01-21T18:42:18.946Z,14.88
2023-01-21T18:44:47.296Z,16.98
2023-01-21T18:47:18.951Z,15.13
2023-01-21T18:49:49.350Z,11.57
2023-01-21T18:52:20.377Z,12.55
2023-01-21T18:54:50.954Z,14.60
2023-01-21T18:57:22.221Z,32.97
2023-01-21T18:59:51.251Z,17.00
2023-01-21T19:02:21.412Z,13.38
2023-01-21T19:04:49.728Z,12.00
2023-01-21T19:07:21.205Z,11.70
2023-01-21T19:09:51.173Z,10.07
2023-01-21T19:12:24.415Z,12.88
2023-01-21T19:14:52.672Z,14.85
2023-01-21T19:17:25.742Z,12.35
2023-01-21T19:19:57.399Z,19.38
2023-01-21T19:22:27.270Z,13.32
2023-01-21T19:24:58.523Z,17.27
2023-01-21T19:27:29.735Z,14.45
2023-01-21T19:29:58.479Z,25.05
2023-01-21T19:32:26.895Z,13.48
2023-01-21T19:34:59.687Z,13.10
2023-01-21T19:39:58.685Z,22.98
2023-01-21T19:42:27.329Z,25.77
2023-01-21T19:44:55.606Z,11.82
2023-01-21T19:47:30.121Z,14.35
2023-01-21T19:49:58.405Z,21.00
2023-01-21T19:52:26.769Z,15.60
2023-01-21T19:54:56.458Z,14.52
2023-01-21T19:57:24.973Z,16.85
2023-01-21T19:59:54.543Z,18.13
2023-01-21T20:02:23.139Z,13.30
2023-01-21T20:04:51.425Z,22.95
2023-01-21T20:07:22.020Z,19.65
2023-01-21T20:09:50.707Z,17.35
2023-01-21T20:12:22.796Z,23.63
2023-01-21T20:14:51.237Z,17.02
2023-01-21T20:17:19.603Z,19.90
2023-01-21T20:19:48.336Z,18.52
2023-01-21T20:22:16.609Z,15.23
2023-01-21T20:24:44.955Z,16.35
2023-01-21T20:27:15.775Z,16.45
2023-01-21T20:29:55.559Z,16.40
2023-01-21T20:32:30.907Z,19.13
2023-01-21T20:34:59.596Z,17.38
2023-01-21T20:37:27.858Z,16.67
2023-01-21T20:39:56.008Z,21.27
2023-01-21T20:42:26.274Z,35.70
2023-01-21T20:44:56.964Z,17.38
2023-01-21T20:47:37.823Z,21.52
2023-01-21T20:50:18.313Z,39.38
2023-01-21T20:52:46.715Z,15.10
2023-01-21T20:55:17.822Z,18.65
2023-01-21T20:57:48.657Z,16.00
2023-01-21T21:00:21.359Z,28.48
2023-01-21T21:05:19.528Z,23.10
2023-01-21T21:07:47.919Z,20.88
2023-01-21T21:10:22.604Z,42.85
2023-01-21T21:12:51.356Z,23.48
2023-01-21T21:15:21.212Z,34.83
2023-01-21T21:17:49.950Z,29.52
2023-01-21T21:20:22.842Z,36.13
2023-01-21T21:22:51.451Z,22.17
2023-01-21T21:25:21.226Z,25.60
2023-01-21T21:27:50.143Z,27.10
2023-01-21T21:30:27.409Z,33.53
2023-01-21T21:32:57.615Z,30.27
2023-01-21T21:35:28.368Z,20.02
2023-01-21T21:38:01.125Z,15.90
2023-01-21T21:40:30.362Z,17.02
2023-01-21T21:43:16.764Z,21.27
2023-01-21T21:46:00.445Z,14.27
2023-01-21T21:48:41.950Z,12.82
2023-01-21T21:51:12.364Z,13.93
2023-01-21T21:53:41.556Z,14.90
2023-01-21T21:56:11.832Z,13.35
2023-01-21T21:58:42.664Z,15.93
2023-01-21T22:01:15.063Z,11.93
2023-01-21T22:03:44.065Z,11.82
2023-01-21T22:06:12.879Z,11.60
2023-01-21T22:08:44.696Z,12.35
2023-01-21T22:11:19.603Z,11.25
2023-01-21T22:13:50.347Z,12.27
2023-01-21T22:16:22.259Z,11.93
2023-01-21T22:18:51.442Z,13.37
2023-01-21T22:21:26.052Z,11.48
2023-01-21T22:23:55.096Z,12.38
2023-01-21T22:26:27.097Z,13.07
2023-01-21T22:28:58.384Z,12.30
2023-01-21T22:31:30.019Z,11.23
2023-01-21T22:33:59.116Z,10.45
2023-01-21T22:36:31.712Z,12.65
2023-01-21T22:39:00.515Z,11.32
2023-01-21T22:41:29.822Z,10.77
2023-01-21T22:43:58.283Z,12.00
2023-01-21T22:46:30.438Z,10.80
2023-01-21T22:48:58.939Z,12.02
2023-01-21T22:51:28.526Z,11.93
2023-01-21T22:53:57.246Z,10.43
2023-01-21T22:56:49.689Z,10.82
2023-01-21T22:59:14.743Z,10.73
2023-01-21T23:01:45.622Z,9.98
2023-01-21T23:04:17.423Z,12.43
2023-01-21T23:06:47.584Z,13.15
2023-01-21T23:09:16.349Z,9.02
2023-01-21T23:11:44.977Z,14.23
2023-01-21T23:14:13.572Z,13.23
2023-01-21T23:16:41.965Z,11.30
2023-01-21T23:19:15.427Z,12.75
2023-01-21T23:21:43.727Z,36.40
2023-01-21T23:24:12.627Z,37.50
2023-01-21T23:26:40.743Z,43.47
2023-01-21T23:29:08.969Z,10.02
2023-01-21T23:31:37.375Z,12.57
2023-01-21T23:34:05.968Z,15.38
2023-01-21T23:36:35.541Z,12.52
2023-01-21T23:39:03.639Z,12.35
2023-01-21T23:41:31.872Z,8.15
2023-01-21T23:44:01.984Z,13.32
2023-01-21T23:46:30.592Z,10.77
2023-01-21T23:48:58.838Z,14.52
2023-01-21T23:51:26.908Z,17.15
2023-01-21T23:53:57.779Z,10.45
2023-01-21T23:56:27.223Z,11.07
2023-01-21T23:58:55.915Z,10.38
